ADDS METAR Data INFO
IDs: Format: Raw Decoded Include TAF

Data at: 0635 UTC 15 Dec 2017

PAIK 150619Z AUTO 22003KT 10SM BKN009 OVC015 M07/M08 A2964 RMK AO2 FZRANO
PAIK 150556Z AUTO 24005KT 10SM OVC013 M05/M07 A2963 RMK AO2 UPE03SNB07E19 SLP040 P0000 60000 T10501067 11033 21050 51009 FZRANO
PAIK 150532Z AUTO 00000KT 9SM OVC013 M04/M06 A2963 RMK AO2 UPE03SNB07E19 P0000 FZRANO
PAIK 150456Z AUTO 00000KT 4SM UP BR SCT006 OVC015 M04/M05 A2963 RMK AO2 UPB20SNB09E20 SLP038 P0000 T10441050 FZRANO
PAIK 150450Z AUTO 00000KT 3SM UP BR FEW004 SCT008 OVC015 M04/M05 A2963 RMK AO2 UPB20SNB09E20 P0000 FZRANO
PAIK 150441Z AUTO 24003KT 2 1/2SM UP BR FEW004 BKN008 OVC012 M04/M05 A2963 RMK AO2 UPB20SNB09E20 CIG 006V010 P0000 FZRANO
PAIK 150434Z AUTO 24003KT 2 1/2SM UP BR BKN004 OVC012 M04/M05 A2962 RMK AO2 UPB20SNB09E20 CIG 003V008 P0000 FZRANO
PAIK 150426Z AUTO 00000KT 1 3/4SM UP BR FEW004 OVC010 M04/M05 A2962 RMK AO2 UPB20SNB09E20 P0000 FZRANO
PAIK 150409Z AUTO 24003KT 2 1/2SM -SN BR OVC010 M04/M05 A2962 RMK AO2 SNB09 P0000 FZRANO
PAIK 150356Z AUTO 00000KT 7SM BKN008 OVC014 M04/M05 A2962 RMK AO2 SNB26E38 CIG 006V010 SLP035 P0000 T10391050 FZRANO
PAIK 150307Z AUTO 00000KT 6SM BR BKN008 OVC011 M04/M04 A2961 RMK AO2 FZRANO
PAIK 150256Z AUTO 21004KT 10SM OVC011 M04/M04 A2961 RMK AO2 SNE11 CIG 007V013 SLP030 P0000 60000 T10391044 53007 FZRANO
PAIK 150243Z AUTO 20004KT 9SM BKN011 OVC020 M04/M04 A2960 RMK AO2 SNE11 P0000 FZRANO
PAIK 150225Z AUTO 18003KT 9SM FEW004 OVC020 M04/M04 A2960 RMK AO2 SNE11 P0000 FZRANO
PAIK 150216Z AUTO 00000KT 5SM BR BKN004 OVC020 M04/M04 A2960 RMK AO2 SNE11 CIG 002V007 P0000 FZRANO
PAIK 150204Z AUTO 00000KT 2SM -SN BR OVC004 M04/M04 A2960 RMK AO2 CIG 002V007 P0000 FZRANO
PAIK 150156Z AUTO 18003KT 3SM -SN BR OVC004 M04/M04 A2960 RMK AO2 UPE55SNB14E29B55 SLP028 P0000 T10391044 FZRANO
PAIK 150114Z AUTO 21005KT 2 1/2SM -SN BR BKN004 OVC008 M03/M04 A2960 RMK AO2 UPE14SNB14 P0000 FZRANO
PAIK 150056Z AUTO 20006KT 1 1/4SM UP BR BKN004 OVC010 M03/M04 A2959 RMK AO2 UPB30SNE30 SLP026 P0000 T10331039 FZRANO
PAIK 142356Z AUTO 22005KT 1 1/4SM -SN BR OVC009 M03/M04 A2958 RMK AO2 CIG 004V012 SLP022 P0000 60001 T10331039 11006 21033 51011 FZRANO
PAIK 142320Z AUTO 21006KT 1 3/4SM -SN BR SCT005 OVC009 M03/M04 A2958 RMK AO2 VIS 1 1/2V2 1/2 CIG 008V012 P0000 FZRANO
PAIK 142311Z AUTO 21008KT 2SM -SN BR BKN005 OVC009 M03/M04 A2957 RMK AO2 VIS 1 1/2V3 CIG 003V007 P0000 FZRANO
PAIK 142256Z AUTO 20007KT 1 1/2SM -SN BR BKN006 OVC011 M03/M03 A2957 RMK AO2 CIG 003V008 SLP019 P0000 T10281033 FZRANO
PAIK 142245Z AUTO 21005KT 1 3/4SM -SN BR BKN008 OVC013 M03/M03 A2957 RMK AO2 CIG 004V011 P0000 FZRANO
PAIK 142231Z AUTO 21006KT 1SM -SN BR FEW006 OVC013 M03/M03 A2957 RMK AO2 P0000 FZRANO
PAIK 142224Z AUTO 20005KT 1SM -SN BR OVC015 M03/M03 A2957 RMK AO2 P0000 FZRANO
PAIK 142156Z AUTO 21007KT 1 1/4SM -SN BR FEW005 BKN020 OVC025 M03/M03 A2957 RMK AO2 SLP017 P0000 T10281033 FZRANO
PAIK 142124Z AUTO 20006KT 1SM -SN BR FEW005 BKN016 OVC021 M03/M03 A2956 RMK AO2 P0000 FZRANO
PAIK 142103Z AUTO 20006KT 1SM -SN BR BKN014 OVC030 M02/M03 A2955 RMK AO2 P0000 FZRANO
PAIK 142056Z AUTO 19005KT 1 1/4SM -SN BR BKN014 OVC030 M02/M03 A2955 RMK AO2 SLP012 P0000 60001 T10221028 52011 FZRANO
PAIK 142047Z AUTO 19004KT 1 1/4SM -SN BR BKN014 OVC030 M02/M03 A2955 RMK AO2 VIS 1V2 1/2 P0000 FZRANO
PAIK 142038Z AUTO 20005KT 1SM -SN BR FEW009 OVC014 M02/M03 A2955 RMK AO2 P0000 FZRANO
PAIK 142031Z AUTO 20005KT 1 1/4SM -SN BR SCT009 OVC014 M02/M03 A2955 RMK AO2 P0000 FZRANO
PAIK 142007Z AUTO 20006KT 2SM -SN BR OVC011 M02/M03 A2954 RMK AO2 CIG 007V013 P0000 FZRANO
PAIK 141956Z AUTO 21005KT 2 1/2SM -SN BR OVC009 M02/M03 A2954 RMK AO2 VIS 1 3/4V4 CIG 005V013 SLP007 P0001 T10221028 FZRANO
PAIK 141953Z AUTO 21006KT 3SM -SN BR OVC009 M02/M03 A2953 RMK AO2 CIG 005V012 P0001 FZRANO
PAIK 141944Z AUTO 21007KT 2 1/2SM -SN BR OVC007 M02/M03 A2953 RMK AO2 CIG 005V011 P0001 FZRANO
PAIK 141917Z AUTO 20005KT 4SM -SN BR OVC007 M02/M02 A2953 RMK AO2 CIG 005V010 P0000 FZRANO
PAIK 141904Z AUTO 21005KT 2 1/2SM -SN BR OVC007 M02/M02 A2952 RMK AO2 CIG 005V010 P0000 FZRANO
PAIK 141856Z AUTO 20007KT 3SM -SN BR OVC007 M01/M02 A2952 RMK AO2 UPB34E36SNE34B36 CIG 005V010 SLP001 P0000 T10111017 FZRANO
PAIK 141815Z AUTO 15003KT 4SM -SN BR OVC009 M01/M01 A2951 RMK AO2 CIG 006V012 P0000 FZRANO
PAIK 141756Z AUTO 14003KT 6SM -SN BR OVC011 M01/M01 A2950 RMK AO2 CIG 004V014 SLP995 P0001 60005 T10111011 11006 21011 53010 FZRANO
PAIK 141727Z AUTO 15005KT 4SM -SN BR BKN007 OVC014 M01/M01 A2950 RMK AO2 CIG 004V009 P0000 FZRANO
PAIK 141713Z AUTO 12005KT 4SM -SN BR OVC014 M01/M01 A2949 RMK AO2 P0000 FZRANO
PAIK 141656Z AUTO 13006KT 4SM -SN BR OVC016 M01/M01 A2949 RMK AO2 SLP990 P0001 T10111011 FZRANO
PAIK 141636Z AUTO 11008KT 3SM -SN BR OVC018 M01/M01 A2949 RMK AO2 P0001 FZRANO
PAIK 141609Z AUTO 11007KT 1 1/2SM -SN BR FEW003 SCT012 OVC018 M01/M02 A2948 RMK AO2 P0000 FZRANO
PAIK 141556Z AUTO 10006KT 1 1/4SM -SN BR FEW003 BKN011 OVC016 M01/M02 A2948 RMK AO2 CIG 007V012 SLP987 P0002 T10111017 FZRANO
PAIK 141542Z AUTO 10007KT 1 1/2SM -SN BR FEW003 BKN011 OVC016 M01/M02 A2948 RMK AO2 P0001 FZRANO
PAIK 141531Z AUTO 11007KT 1SM -SN BR FEW003 BKN011 OVC016 M01/M02 A2948 RMK AO2 P0001 FZRANO
PAIK 141519Z AUTO 10007KT 1 3/4SM -SN BR FEW003 OVC016 M01/M02 A2947 RMK AO2 P0001 FZRANO
PAIK 141503Z AUTO 10007KT 2 1/2SM -SN BR FEW005 OVC016 M01/M02 A2947 RMK AO2 P0000 FZRANO
PAIK 141456Z AUTO 10006KT 3SM -SN BR FEW005 OVC016 M01/M02 A2947 RMK AO2 SLP984 P0000 60001 T10111017 53004 FZRANO
PAIK 141412Z AUTO 10006KT 3SM -SN BR SCT003 BKN022 OVC029 M01/M02 A2947 RMK AO2 P0000 FZRANO
PAIK 141407Z AUTO 11008KT 2 1/2SM -SN BR SCT003 BKN009 OVC028 M01/M02 A2946 RMK AO2 CIG 007V013 P0000 FZRANO
PAIK 141356Z AUTO 10006KT 6SM -SN BR BKN003 BKN009 OVC019 M01/M02 A2946 RMK AO2 SLP981 P0001 T10111017 FZRANO
PAIK 141353Z AUTO 10006KT 5SM -SN BR BKN003 BKN007 OVC019 M01/M02 A2946 RMK AO2 P0001 FZRANO
PAIK 141341Z AUTO 10007KT 2 1/2SM -SN BR BKN003 OVC016 M01/M02 A2946 RMK AO2 VIS 2V4 P0001 FZRANO
PAIK 141323Z AUTO 11006KT 1 1/2SM -SN BR FEW005 BKN015 OVC020 M01/M02 A2946 RMK AO2 P0001 FZRANO
PAIK 141316Z AUTO 11006KT 2SM -SN BR FEW005 BKN015 OVC020 M01/M02 A2946 RMK AO2 P0000 FZRANO
PAIK 141307Z AUTO 11006KT 3SM -SN BR FEW005 OVC020 M01/M02 A2946 RMK AO2 P0000 FZRANO
PAIK 141256Z AUTO 12006KT 2SM -SN BR FEW005 BKN022 OVC029 M01/M02 A2946 RMK AO2 VIS 1 1/4V3 SLP980 P0000 T10111017 FZRANO
PAIK 141254Z AUTO 12006KT 1 3/4SM -SN BR FEW005 BKN022 OVC029 M01/M02 A2946 RMK AO2 P0000 FZRANO
PAIK 141244Z AUTO 11006KT 2 1/2SM -SN BR FEW009 BKN022 OVC027 M01/M02 A2946 RMK AO2 VIS 1 3/4V4 P0000 FZRANO
PAIK 141156Z AUTO 10006KT 9SM -SN SCT011 SCT016 OVC029 M01/M02 A2945 RMK AO2 SLP977 P0000 60002 70007 T10061017 10011 21006 51007 FZRANO
PAIK 141151Z AUTO 10004KT 9SM -SN FEW011 BKN027 OVC032 M01/M02 A2945 RMK AO2 P0000 FZRANO
PAIK 141143Z AUTO 10005KT 9SM -SN OVC031 M01/M02 A2945 RMK AO2 P0000 FZRANO
PAIK 141047Z AUTO 13007KT 9SM -SN SCT011 OVC015 M01/M01 A2943 RMK AO2 P0000 FZRANO
PAIK 141026Z AUTO 13008KT 4SM -SN BR FEW007 OVC012 M01/M01 A2943 RMK AO2 P0000 FZRANO
PAIK 141009Z AUTO 11007KT 2 1/2SM -SN BR SCT007 OVC012 00/M01 A2943 RMK AO2 VIS 1 3/4V4 P0000 FZRANO
PAIK 141004Z AUTO 11007KT 3SM -SN BR BKN007 OVC012 00/M01 A2943 RMK AO2 CIG 004V009 P0000 FZRANO
PAIK 140956Z AUTO 11004KT 4SM -SN BR SCT007 BKN010 OVC043 00/M01 A2943 RMK AO2 SLP969 P0000 T00001006 FZRANO
PAIK 140905Z AUTO 10007KT 3SM -SN BR SCT005 OVC010 00/M01 A2942 RMK AO2 CIG 008V013 P0000 FZRANO
PAIK 140900Z AUTO 10008KT 2 1/2SM -SN BR BKN006 OVC010 00/M01 A2942 RMK AO2 CIG 003V009 P0000 FZRANO
PAIK 140856Z AUTO 10009KT 1 3/4SM -SN BR BKN004 OVC010 00/M01 A2942 RMK AO2 CIG 003V007 SLP966 P0001 60002 T00001006 400280000 53001 FZRANO
PAIK 140847Z AUTO 09006KT 1 3/4SM -SN BR OVC004 00/M01 A2942 RMK AO2 P0001 FZRANO
PAIK 140824Z AUTO 09006KT 2 1/2SM -SN BR OVC004 00/M01 A2942 RMK AO2 VIS 1 3/4V3 P0000 FZRANO
PAIK 140804Z AUTO 10007KT 4SM -SN BR BKN008 OVC012 01/M01 A2942 RMK AO2 CIG 005V010 P0000 FZRANO
PAIK 140756Z AUTO 10006KT 4SM -SN BR OVC012 01/M01 A2942 RMK AO2 SLP965 P0001 T00061006 FZRANO
PAIK 140733Z AUTO 09007KT 9SM -SN FEW007 OVC012 01/M01 A2941 RMK AO2 P0001 FZRANO
PAIK 140719Z AUTO 08008KT 5SM -SN BR BKN010 OVC014 01/M01 A2941 RMK AO2 CIG 005V013 P0001 FZRANO
PAIK 140704Z AUTO 08008KT 7SM -SN BKN009 OVC014 01/M01 A2941 RMK AO2 CIG 006V013 P0001 FZRANO
PAIK 140656Z AUTO 09010KT 7SM -SN FEW007 OVC012 01/00 A2941 RMK AO2 SLP964 P0000 T00060000 FZRANO
PAIK 140556Z AUTO 09009KT 9SM -SN OVC010 01/00 A2942 RMK AO2 RAE48SNB48 CIG 009V015 SLP966 P0000 60001 T00110000 10028 20011 56012 FZRANO
PAIK 140528Z AUTO 08011G17KT 10SM -RA BKN012 OVC017 01/00 A2942 RMK AO2 P0000 FZRANO
PAIK 140456Z AUTO 09011G22KT 10SM -RA OVC023 01/00 A2942 RMK AO2 RAE27B44UPB27E44 SLP966 P0001 T00110000 FZRANO
PAIK 140436Z AUTO 08012G17KT 10SM UP SCT013 OVC019 01/00 A2942 RMK AO2 RAE27UPB27 P0001 FZRANO
PAIK 140418Z AUTO 08010G17KT 10SM -RA BKN013 OVC021 01/00 A2943 RMK AO2 P0001 FZRANO
PAIK 140356Z AUTO 07009KT 10SM -RA SCT010 BKN016 OVC030 02/00 A2944 RMK AO2 SLP972 P0000 T00170000 FZRANO
PAIK 140305Z AUTO 08007G15KT 10SM -RA BKN027 OVC037 02/M01 A2945 RMK AO2 P0000 FZRANO
PAIK 140256Z AUTO 08011G18KT 10SM -RA BKN030 OVC039 02/M01 A2945 RMK AO2 RAB19UPB28E37 SLP978 P0000 60000 T00221011 55012 FZRANO
PAIK 140156Z AUTO 01006KT 10SM FEW025 SCT038 OVC060 02/M01 A2945 RMK AO2 RAB29E53 SLP977 P0000 T00171011 FZRANO
PAIK 140056Z AUTO 00000KT 10SM BKN075 OVC090 02/M02 A2947 RMK AO2 SLP983 T00171017 FZRANO
PAIK 132356Z AUTO 36005KT 10SM FEW065 BKN100 02/M02 A2949 RMK AO2 SLP990 60000 T00171022 10022 20011 58031 FZRANO
PAIK 132256Z AUTO VRB05KT 10SM CLR 02/M03 A2954 RMK AO2 SLP006 T00221028 FZRANO
PAIK 132156Z AUTO 09008KT 10SM OVC090 02/M02 A2957 RMK AO2 SLP018 T00221022 FZRANO
PAIK 132056Z AUTO 09010G14KT 10SM FEW120 02/M02 A2958 RMK AO2 SLP021 60000 T00221017 58012 FZRANO
PAIK 131956Z AUTO VRB03KT 10SM OVC080 02/M01 A2960 RMK AO2 UPE1859 SLP029 P0000 T00171011 FZRANO
PAIK 131856Z AUTO 11012G19KT 10SM UP FEW034 OVC070 02/M01 A2960 RMK AO2 UPB35 SLP029 P0000 T00221006 FZRANO
PAIK 131843Z AUTO 11014G20KT 10SM UP SCT029 BKN048 OVC065 02/M01 A2960 RMK AO2 UPB35 P0000 FZRANO